sensor_id;sensor_type;location;lat;lon;timestamp;temperature;humidity
2389;DHT22;1205;47.984;7.668;2023-08-01T00:01:24;21.50;99.90
2389;DHT22;1205;47.984;7.668;2023-08-01T00:03:50;21.50;99.90
2389;DHT22;1205;47.984;7.668;2023-08-01T00:06:15;21.60;99.90
2389;DHT22;1205;47.984;7.668;2023-08-01T00:08:41;21.50;99.90
2389;DHT22;1205;47.984;7.668;2023-08-01T00:11:06;21.50;99.90
2389;DHT22;1205;47.984;7.668;2023-08-01T00:13:32;21.60;99.90
2389;DHT22;1205;47.984;7.668;2023-08-01T00:15:58;21.50;99.90
2389;DHT22;1205;47.984;7.668;2023-08-01T00:18:23;21.40;99.90
2389;DHT22;1205;47.984;7.668;2023-08-01T00:20:52;21.40;99.90
2389;DHT22;1205;47.984;7.668;2023-08-01T00:23:18;21.40;99.90
2389;DHT22;1205;47.984;7.668;2023-08-01T00:25:43;21.40;99.90
2389;DHT22;1205;47.984;7.668;2023-08-01T00:28:09;21.40;99.90
2389;DHT22;1205;47.984;7.668;2023-08-01T00:30:35;21.40;99.90
2389;DHT22;1205;47.984;7.668;2023-08-01T00:33:00;21.40;99.90
2389;DHT22;1205;47.984;7.668;2023-08-01T00:35:26;21.40;99.90
2389;DHT22;1205;47.984;7.668;2023-08-01T00:37:52;21.40;99.90
2389;DHT22;1205;47.984;7.668;2023-08-01T00:40:17;21.40;99.90
2389;DHT22;1205;47.984;7.668;2023-08-01T00:42:43;21.40;99.90
2389;DHT22;1205;47.984;7.668;2023-08-01T00:45:09;21.40;99.90
2389;DHT22;1205;47.984;7.668;2023-08-01T00:47:35;21.40;99.90
2389;DHT22;1205;47.984;7.668;2023-08-01T00:50:01;21.30;99.90
2389;DHT22;1205;47.984;7.668;2023-08-01T00:52:27;21.30;99.90
2389;DHT22;1205;47.984;7.668;2023-08-01T00:54:53;21.20;99.90
2389;DHT22;1205;47.984;7.668;2023-08-01T00:57:19;21.20;99.90
2389;DHT22;1205;47.984;7.668;2023-08-01T00:59:45;21.20;99.90
2389;DHT22;1205;47.984;7.668;2023-08-01T01:02:10;21.20;99.90
2389;DHT22;1205;47.984;7.668;2023-08-01T01:04:37;21.30;99.90
2389;DHT22;1205;47.984;7.668;2023-08-01T01:07:06;21.20;99.90
2389;DHT22;1205;47.984;7.668;2023-08-01T01:09:32;21.20;99.90
2389;DHT22;1205;47.984;7.668;2023-08-01T01:11:58;21.30;99.90
2389;DHT22;1205;47.984;7.668;2023-08-01T01:14:27;21.30;99.90
2389;DHT22;1205;47.984;7.668;2023-08-01T01:16:53;21.30;99.90
2389;DHT22;1205;47.984;7.668;2023-08-01T01:19:19;21.30;99.90
2389;DHT22;1205;47.984;7.668;2023-08-01T01:21:45;21.40;99.90
2389;DHT22;1205;47.984;7.668;2023-08-01T01:24:13;21.40;99.90
2389;DHT22;1205;47.984;7.668;2023-08-01T01:26:40;21.40;99.90
2389;DHT22;1205;47.984;7.668;2023-08-01T01:29:07;21.40;99.90
2389;DHT22;1205;47.984;7.668;2023-08-01T01:31:34;21.40;99.90
2389;DHT22;1205;47.984;7.668;2023-08-01T01:34:02;21.40;99.90
2389;DHT22;1205;47.984;7.668;2023-08-01T01:36:28;21.30;99.90
2389;DHT22;1205;47.984;7.668;2023-08-01T01:38:54;21.30;99.90
2389;DHT22;1205;47.984;7.668;2023-08-01T01:41:20;21.30;99.90
2389;DHT22;1205;47.984;7.668;2023-08-01T01:43:45;21.40;99.90
2389;DHT22;1205;47.984;7.668;2023-08-01T01:46:11;21.30;99.90
2389;DHT22;1205;47.984;7.668;2023-08-01T01:48:36;21.30;99.90
2389;DHT22;1205;47.984;7.668;2023-08-01T01:51:02;21.20;99.90
2389;DHT22;1205;47.984;7.668;2023-08-01T01:53:27;21.30;99.90
2389;DHT22;1205;47.984;7.668;2023-08-01T01:55:53;21.20;99.90
2389;DHT22;1205;47.984;7.668;2023-08-01T01:58:19;21.20;99.90
2389;DHT22;1205;47.984;7.668;2023-08-01T02:00:44;21.20;99.90
2389;DHT22;1205;47.984;7.668;2023-08-01T02:03:10;21.20;99.90
2389;DHT22;1205;47.984;7.668;2023-08-01T02:05:36;21.20;99.90
2389;DHT22;1205;47.984;7.668;2023-08-01T02:08:02;21.20;99.90
2389;DHT22;1205;47.984;7.668;2023-08-01T02:10:28;21.10;99.90
2389;DHT22;1205;47.984;7.668;2023-08-01T02:12:53;21.20;99.90
2389;DHT22;1205;47.984;7.668;2023-08-01T02:15:19;21.10;99.90
2389;DHT22;1205;47.984;7.668;2023-08-01T02:17:44;21.20;99.90
2389;DHT22;1205;47.984;7.668;2023-08-01T02:20:10;21.10;99.90
2389;DHT22;1205;47.984;7.668;2023-08-01T02:22:36;21.20;99.90
2389;DHT22;1205;47.984;7.668;2023-08-01T02:25:01;21.10;99.90
2389;DHT22;1205;47.984;7.668;2023-08-01T02:27:27;21.20;99.90
2389;DHT22;1205;47.984;7.668;2023-08-01T02:29:52;21.10;99.90
2389;DHT22;1205;47.984;7.668;2023-08-01T02:32:18;21.10;99.90
2389;DHT22;1205;47.984;7.668;2023-08-01T02:34:44;21.20;99.90
2389;DHT22;1205;47.984;7.668;2023-08-01T02:37:09;21.20;99.90
2389;DHT22;1205;47.984;7.668;2023-08-01T02:39:35;21.20;99.90
2389;DHT22;1205;47.984;7.668;2023-08-01T02:42:01;21.20;99.90
2389;DHT22;1205;47.984;7.668;2023-08-01T02:44:27;21.20;99.90
2389;DHT22;1205;47.984;7.668;2023-08-01T02:46:53;21.30;99.90
2389;DHT22;1205;47.984;7.668;2023-08-01T02:49:19;21.30;99.90
2389;DHT22;1205;47.984;7.668;2023-08-01T02:51:45;21.30;99.90
2389;DHT22;1205;47.984;7.668;2023-08-01T02:54:10;21.30;99.90
2389;DHT22;1205;47.984;7.668;2023-08-01T02:56:36;21.30;99.90
2389;DHT22;1205;47.984;7.668;2023-08-01T02:59:06;21.30;99.90
2389;DHT22;1205;47.984;7.668;2023-08-01T03:01:37;21.30;99.90
2389;DHT22;1205;47.984;7.668;2023-08-01T03:04:04;21.30;99.90
2389;DHT22;1205;47.984;7.668;2023-08-01T03:06:34;21.30;99.90
2389;DHT22;1205;47.984;7.668;2023-08-01T03:09:00;21.20;99.90
2389;DHT22;1205;47.984;7.668;2023-08-01T03:11:26;21.30;99.90
2389;DHT22;1205;47.984;7.668;2023-08-01T03:13:52;21.20;99.90
2389;DHT22;1205;47.984;7.668;2023-08-01T03:16:17;21.20;99.90
2389;DHT22;1205;47.984;7.668;2023-08-01T03:18:43;21.10;99.90
2389;DHT22;1205;47.984;7.668;2023-08-01T03:21:09;21.10;99.90
2389;DHT22;1205;47.984;7.668;2023-08-01T03:23:35;21.20;99.90
2389;DHT22;1205;47.984;7.668;2023-08-01T03:26:00;21.10;99.90
2389;DHT22;1205;47.984;7.668;2023-08-01T03:28:26;21.10;99.90
2389;DHT22;1205;47.984;7.668;2023-08-01T03:30:52;21.00;99.90
2389;DHT22;1205;47.984;7.668;2023-08-01T03:33:19;21.10;99.90
2389;DHT22;1205;47.984;7.668;2023-08-01T03:35:45;21.00;99.90
2389;DHT22;1205;47.984;7.668;2023-08-01T03:38:10;21.00;99.90
2389;DHT22;1205;47.984;7.668;2023-08-01T03:40:36;21.10;99.90
2389;DHT22;1205;47.984;7.668;2023-08-01T03:43:01;21.00;99.90
2389;DHT22;1205;47.984;7.668;2023-08-01T03:45:27;21.00;99.90
2389;DHT22;1205;47.984;7.668;2023-08-01T03:47:52;21.00;99.90
2389;DHT22;1205;47.984;7.668;2023-08-01T03:50:18;21.00;99.90
2389;DHT22;1205;47.984;7.668;2023-08-01T03:52:44;21.00;99.90
2389;DHT22;1205;47.984;7.668;2023-08-01T03:55:10;21.00;99.90
2389;DHT22;1205;47.984;7.668;2023-08-01T03:57:37;21.00;99.90
2389;DHT22;1205;47.984;7.668;2023-08-01T04:00:07;20.90;99.90
2389;DHT22;1205;47.984;7.668;2023-08-01T04:02:39;21.00;99.90
2389;DHT22;1205;47.984;7.668;2023-08-01T04:05:06;20.80;99.90
2389;DHT22;1205;47.984;7.668;2023-08-01T04:07:31;20.80;99.90
2389;DHT22;1205;47.984;7.668;2023-08-01T04:09:57;20.70;99.90
2389;DHT22;1205;47.984;7.668;2023-08-01T04:12:22;20.70;99.90
2389;DHT22;1205;47.984;7.668;2023-08-01T04:14:48;20.60;99.90
2389;DHT22;1205;47.984;7.668;2023-08-01T04:17:13;20.50;99.90
2389;DHT22;1205;47.984;7.668;2023-08-01T04:19:39;20.30;99.90
2389;DHT22;1205;47.984;7.668;2023-08-01T04:22:04;20.30;99.90
2389;DHT22;1205;47.984;7.668;2023-08-01T04:24:30;20.20;99.90
2389;DHT22;1205;47.984;7.668;2023-08-01T04:26:56;20.20;99.90
2389;DHT22;1205;47.984;7.668;2023-08-01T04:29:21;20.10;99.90
2389;DHT22;1205;47.984;7.668;2023-08-01T04:31:47;20.00;99.90
2389;DHT22;1205;47.984;7.668;2023-08-01T04:34:13;20.00;99.90
2389;DHT22;1205;47.984;7.668;2023-08-01T04:36:38;20.00;99.90
2389;DHT22;1205;47.984;7.668;2023-08-01T04:39:04;19.90;99.90
2389;DHT22;1205;47.984;7.668;2023-08-01T04:41:29;19.90;99.90
2389;DHT22;1205;47.984;7.668;2023-08-01T04:43:55;19.90;99.90
2389;DHT22;1205;47.984;7.668;2023-08-01T04:46:20;19.90;99.90
2389;DHT22;1205;47.984;7.668;2023-08-01T04:48:46;19.90;99.90
2389;DHT22;1205;47.984;7.668;2023-08-01T04:51:11;19.90;99.90
2389;DHT22;1205;47.984;7.668;2023-08-01T04:53:37;19.80;99.90
2389;DHT22;1205;47.984;7.668;2023-08-01T04:56:03;19.70;99.90
2389;DHT22;1205;47.984;7.668;2023-08-01T04:58:28;19.60;99.90
2389;DHT22;1205;47.984;7.668;2023-08-01T05:00:55;19.50;99.90
2389;DHT22;1205;47.984;7.668;2023-08-01T05:03:21;19.30;99.90
2389;DHT22;1205;47.984;7.668;2023-08-01T05:05:47;19.20;99.90
2389;DHT22;1205;47.984;7.668;2023-08-01T05:08:12;19.10;99.90
2389;DHT22;1205;47.984;7.668;2023-08-01T05:10:38;19.10;99.90
2389;DHT22;1205;47.984;7.668;2023-08-01T05:13:03;19.20;99.90
2389;DHT22;1205;47.984;7.668;2023-08-01T05:15:29;19.10;99.90
2389;DHT22;1205;47.984;7.668;2023-08-01T05:17:54;19.20;99.90
2389;DHT22;1205;47.984;7.668;2023-08-01T05:20:21;19.20;99.90
2389;DHT22;1205;47.984;7.668;2023-08-01T05:22:46;19.10;99.90
2389;DHT22;1205;47.984;7.668;2023-08-01T05:25:12;19.20;99.90
2389;DHT22;1205;47.984;7.668;2023-08-01T05:27:39;19.10;99.90
2389;DHT22;1205;47.984;7.668;2023-08-01T05:30:05;19.00;99.90
2389;DHT22;1205;47.984;7.668;2023-08-01T05:32:30;19.00;99.90
2389;DHT22;1205;47.984;7.668;2023-08-01T05:34:56;19.00;99.90
2389;DHT22;1205;47.984;7.668;2023-08-01T05:37:22;19.00;99.90
2389;DHT22;1205;47.984;7.668;2023-08-01T05:39:47;19.10;99.90
2389;DHT22;1205;47.984;7.668;2023-08-01T05:42:13;19.00;99.90
2389;DHT22;1205;47.984;7.668;2023-08-01T05:44:38;19.00;99.90
2389;DHT22;1205;47.984;7.668;2023-08-01T05:47:04;19.00;99.90
2389;DHT22;1205;47.984;7.668;2023-08-01T05:49:30;19.10;99.90
2389;DHT22;1205;47.984;7.668;2023-08-01T05:51:56;19.10;99.90
2389;DHT22;1205;47.984;7.668;2023-08-01T05:54:21;19.30;99.90
2389;DHT22;1205;47.984;7.668;2023-08-01T05:56:47;19.20;99.90
2389;DHT22;1205;47.984;7.668;2023-08-01T05:59:12;19.20;99.90
2389;DHT22;1205;47.984;7.668;2023-08-01T06:01:38;19.20;99.90
2389;DHT22;1205;47.984;7.668;2023-08-01T06:04:03;19.20;99.90
2389;DHT22;1205;47.984;7.668;2023-08-01T06:06:29;19.20;99.90
2389;DHT22;1205;47.984;7.668;2023-08-01T06:08:55;19.10;99.90
2389;DHT22;1205;47.984;7.668;2023-08-01T06:11:21;19.30;99.90
2389;DHT22;1205;47.984;7.668;2023-08-01T06:13:47;19.40;99.90
2389;DHT22;1205;47.984;7.668;2023-08-01T06:16:12;19.40;99.90
2389;DHT22;1205;47.984;7.668;2023-08-01T06:18:38;19.40;99.90
2389;DHT22;1205;47.984;7.668;2023-08-01T06:21:03;19.40;99.90
2389;DHT22;1205;47.984;7.668;2023-08-01T06:23:29;19.50;99.90
2389;DHT22;1205;47.984;7.668;2023-08-01T06:25:54;19.40;99.90
2389;DHT22;1205;47.984;7.668;2023-08-01T06:28:20;19.50;99.90
2389;DHT22;1205;47.984;7.668;2023-08-01T06:30:46;19.50;99.90
2389;DHT22;1205;47.984;7.668;2023-08-01T06:33:12;19.60;99.90
2389;DHT22;1205;47.984;7.668;2023-08-01T06:35:38;19.60;99.90
2389;DHT22;1205;47.984;7.668;2023-08-01T06:38:03;19.60;99.90
2389;DHT22;1205;47.984;7.668;2023-08-01T06:40:29;19.40;99.90
2389;DHT22;1205;47.984;7.668;2023-08-01T06:42:54;19.10;99.90
2389;DHT22;1205;47.984;7.668;2023-08-01T06:45:20;19.10;99.90
2389;DHT22;1205;47.984;7.668;2023-08-01T06:47:46;19.10;99.90
2389;DHT22;1205;47.984;7.668;2023-08-01T06:50:11;19.00;99.90
2389;DHT22;1205;47.984;7.668;2023-08-01T06:52:37;19.00;99.90
2389;DHT22;1205;47.984;7.668;2023-08-01T06:55:02;19.00;99.90
2389;DHT22;1205;47.984;7.668;2023-08-01T06:57:28;19.10;99.90
2389;DHT22;1205;47.984;7.668;2023-08-01T06:59:54;19.30;99.90
2389;DHT22;1205;47.984;7.668;2023-08-01T07:02:19;19.40;99.90
2389;DHT22;1205;47.984;7.668;2023-08-01T07:04:45;19.40;99.90
2389;DHT22;1205;47.984;7.668;2023-08-01T07:07:11;19.50;99.90
2389;DHT22;1205;47.984;7.668;2023-08-01T07:09:37;19.40;99.90
2389;DHT22;1205;47.984;7.668;2023-08-01T07:12:02;19.40;99.90
2389;DHT22;1205;47.984;7.668;2023-08-01T07:14:28;19.30;99.90
2389;DHT22;1205;47.984;7.668;2023-08-01T07:16:54;19.30;99.90
2389;DHT22;1205;47.984;7.668;2023-08-01T07:19:19;19.10;99.90
2389;DHT22;1205;47.984;7.668;2023-08-01T07:21:45;18.90;99.90
2389;DHT22;1205;47.984;7.668;2023-08-01T07:24:13;18.90;99.90
2389;DHT22;1205;47.984;7.668;2023-08-01T07:26:39;18.90;99.90
2389;DHT22;1205;47.984;7.668;2023-08-01T07:29:05;18.80;99.90
2389;DHT22;1205;47.984;7.668;2023-08-01T07:31:30;18.70;99.90
2389;DHT22;1205;47.984;7.668;2023-08-01T07:33:56;18.70;99.90
2389;DHT22;1205;47.984;7.668;2023-08-01T07:36:22;18.60;99.90
2389;DHT22;1205;47.984;7.668;2023-08-01T07:38:47;18.60;99.90
2389;DHT22;1205;47.984;7.668;2023-08-01T07:41:13;18.60;99.90
2389;DHT22;1205;47.984;7.668;2023-08-01T07:43:38;18.50;99.90
2389;DHT22;1205;47.984;7.668;2023-08-01T07:46:04;18.60;99.90
2389;DHT22;1205;47.984;7.668;2023-08-01T07:48:29;18.50;99.90
2389;DHT22;1205;47.984;7.668;2023-08-01T07:50:55;18.50;99.90
2389;DHT22;1205;47.984;7.668;2023-08-01T07:53:21;18.60;99.90
2389;DHT22;1205;47.984;7.668;2023-08-01T07:55:46;18.60;99.90
2389;DHT22;1205;47.984;7.668;2023-08-01T07:58:12;18.60;99.90
2389;DHT22;1205;47.984;7.668;2023-08-01T08:00:37;18.50;99.90
2389;DHT22;1205;47.984;7.668;2023-08-01T08:03:04;18.60;99.90
2389;DHT22;1205;47.984;7.668;2023-08-01T08:05:31;18.50;99.90
2389;DHT22;1205;47.984;7.668;2023-08-01T08:07:56;18.50;99.90
2389;DHT22;1205;47.984;7.668;2023-08-01T08:10:22;18.60;99.90
2389;DHT22;1205;47.984;7.668;2023-08-01T08:12:47;18.70;99.90
2389;DHT22;1205;47.984;7.668;2023-08-01T08:15:13;18.70;99.90
2389;DHT22;1205;47.984;7.668;2023-08-01T08:17:41;18.70;99.90
2389;DHT22;1205;47.984;7.668;2023-08-01T08:20:07;19.00;99.90
2389;DHT22;1205;47.984;7.668;2023-08-01T08:22:32;19.10;99.90
2389;DHT22;1205;47.984;7.668;2023-08-01T08:24:58;19.40;99.90
2389;DHT22;1205;47.984;7.668;2023-08-01T08:27:23;19.30;99.90
2389;DHT22;1205;47.984;7.668;2023-08-01T08:29:50;19.30;99.90
2389;DHT22;1205;47.984;7.668;2023-08-01T08:32:16;19.60;99.90
2389;DHT22;1205;47.984;7.668;2023-08-01T08:34:41;19.70;99.90
2389;DHT22;1205;47.984;7.668;2023-08-01T08:37:07;19.80;99.90
2389;DHT22;1205;47.984;7.668;2023-08-01T08:39:32;19.70;99.90
2389;DHT22;1205;47.984;7.668;2023-08-01T08:41:59;19.50;99.90
2389;DHT22;1205;47.984;7.668;2023-08-01T08:44:24;19.60;99.90
2389;DHT22;1205;47.984;7.668;2023-08-01T08:46:52;19.60;99.90
2389;DHT22;1205;47.984;7.668;2023-08-01T08:49:21;19.60;99.90
2389;DHT22;1205;47.984;7.668;2023-08-01T08:51:48;19.70;99.90
2389;DHT22;1205;47.984;7.668;2023-08-01T08:54:15;20.00;99.90
2389;DHT22;1205;47.984;7.668;2023-08-01T08:56:41;20.10;99.90
2389;DHT22;1205;47.984;7.668;2023-08-01T08:59:10;20.20;99.90
2389;DHT22;1205;47.984;7.668;2023-08-01T09:01:37;20.10;99.90
2389;DHT22;1205;47.984;7.668;2023-08-01T09:04:03;20.00;99.90
2389;DHT22;1205;47.984;7.668;2023-08-01T09:06:46;20.00;99.90
2389;DHT22;1205;47.984;7.668;2023-08-01T09:09:14;20.20;99.90
2389;DHT22;1205;47.984;7.668;2023-08-01T09:11:46;20.10;99.90
2389;DHT22;1205;47.984;7.668;2023-08-01T09:14:12;20.20;99.90
2389;DHT22;1205;47.984;7.668;2023-08-01T09:16:39;20.40;99.90
2389;DHT22;1205;47.984;7.668;2023-08-01T09:19:06;20.70;99.90
2389;DHT22;1205;47.984;7.668;2023-08-01T09:21:33;20.80;99.90
2389;DHT22;1205;47.984;7.668;2023-08-01T09:24:09;21.00;99.90
2389;DHT22;1205;47.984;7.668;2023-08-01T09:26:36;21.10;99.90
2389;DHT22;1205;47.984;7.668;2023-08-01T09:29:01;20.90;99.90
2389;DHT22;1205;47.984;7.668;2023-08-01T09:31:36;21.00;99.90
2389;DHT22;1205;47.984;7.668;2023-08-01T09:34:03;21.10;99.90
2389;DHT22;1205;47.984;7.668;2023-08-01T09:36:33;21.00;99.90
2389;DHT22;1205;47.984;7.668;2023-08-01T09:39:00;21.00;99.90
2389;DHT22;1205;47.984;7.668;2023-08-01T09:41:26;21.20;99.90
2389;DHT22;1205;47.984;7.668;2023-08-01T09:43:53;21.20;99.90
2389;DHT22;1205;47.984;7.668;2023-08-01T09:46:19;21.20;99.90
2389;DHT22;1205;47.984;7.668;2023-08-01T09:48:44;21.10;99.90
2389;DHT22;1205;47.984;7.668;2023-08-01T09:51:12;21.00;99.90
2389;DHT22;1205;47.984;7.668;2023-08-01T09:53:56;21.10;99.90
2389;DHT22;1205;47.984;7.668;2023-08-01T09:56:26;21.10;99.90
2389;DHT22;1205;47.984;7.668;2023-08-01T09:58:53;21.20;99.90
2389;DHT22;1205;47.984;7.668;2023-08-01T10:01:21;21.10;99.90
2389;DHT22;1205;47.984;7.668;2023-08-01T10:03:48;21.00;99.90
2389;DHT22;1205;47.984;7.668;2023-08-01T10:06:20;21.00;99.90
2389;DHT22;1205;47.984;7.668;2023-08-01T10:08:47;21.20;99.90
2389;DHT22;1205;47.984;7.668;2023-08-01T10:11:15;21.30;99.90
2389;DHT22;1205;47.984;7.668;2023-08-01T10:13:42;21.20;99.90
2389;DHT22;1205;47.984;7.668;2023-08-01T10:16:09;21.30;99.90
2389;DHT22;1205;47.984;7.668;2023-08-01T10:18:34;21.30;99.90
2389;DHT22;1205;47.984;7.668;2023-08-01T10:21:04;21.30;99.90
2389;DHT22;1205;47.984;7.668;2023-08-01T10:23:30;21.30;99.90
2389;DHT22;1205;47.984;7.668;2023-08-01T10:25:59;21.20;99.90
2389;DHT22;1205;47.984;7.668;2023-08-01T10:28:39;21.70;99.90
2389;DHT22;1205;47.984;7.668;2023-08-01T10:33:34;21.80;99.90
2389;DHT22;1205;47.984;7.668;2023-08-01T10:36:00;21.80;99.90
2389;DHT22;1205;47.984;7.668;2023-08-01T10:38:25;21.90;99.90
2389;DHT22;1205;47.984;7.668;2023-08-01T10:40:51;22.00;99.90
2389;DHT22;1205;47.984;7.668;2023-08-01T10:43:21;22.10;99.90
2389;DHT22;1205;47.984;7.668;2023-08-01T10:45:47;21.90;99.90
2389;DHT22;1205;47.984;7.668;2023-08-01T10:48:13;22.10;99.90
2389;DHT22;1205;47.984;7.668;2023-08-01T10:50:39;22.10;99.90
2389;DHT22;1205;47.984;7.668;2023-08-01T10:53:07;22.00;99.90
2389;DHT22;1205;47.984;7.668;2023-08-01T10:55:45;22.00;99.90
2389;DHT22;1205;47.984;7.668;2023-08-01T10:58:12;22.40;99.90
2389;DHT22;1205;47.984;7.668;2023-08-01T11:00:38;22.70;99.90
2389;DHT22;1205;47.984;7.668;2023-08-01T11:03:04;22.60;99.90
2389;DHT22;1205;47.984;7.668;2023-08-01T11:05:30;22.50;99.90
2389;DHT22;1205;47.984;7.668;2023-08-01T11:07:56;22.80;99.90
2389;DHT22;1205;47.984;7.668;2023-08-01T11:10:23;23.10;99.90
2389;DHT22;1205;47.984;7.668;2023-08-01T11:12:49;22.90;99.90
2389;DHT22;1205;47.984;7.668;2023-08-01T11:15:15;22.80;99.90
2389;DHT22;1205;47.984;7.668;2023-08-01T11:17:42;22.90;99.90
2389;DHT22;1205;47.984;7.668;2023-08-01T11:20:09;23.20;99.90
2389;DHT22;1205;47.984;7.668;2023-08-01T11:22:36;22.80;99.90
2389;DHT22;1205;47.984;7.668;2023-08-01T11:25:02;23.10;99.90
2389;DHT22;1205;47.984;7.668;2023-08-01T11:27:28;22.70;99.90
2389;DHT22;1205;47.984;7.668;2023-08-01T11:29:55;22.90;99.90
2389;DHT22;1205;47.984;7.668;2023-08-01T11:32:21;23.20;99.90
2389;DHT22;1205;47.984;7.668;2023-08-01T11:34:48;23.10;99.90
2389;DHT22;1205;47.984;7.668;2023-08-01T11:37:17;23.00;99.90
2389;DHT22;1205;47.984;7.668;2023-08-01T11:39:44;23.30;99.90
2389;DHT22;1205;47.984;7.668;2023-08-01T11:42:17;23.10;99.90
2389;DHT22;1205;47.984;7.668;2023-08-01T11:44:45;23.20;99.90
2389;DHT22;1205;47.984;7.668;2023-08-01T11:47:15;22.80;99.90
2389;DHT22;1205;47.984;7.668;2023-08-01T11:49:48;22.90;99.90
2389;DHT22;1205;47.984;7.668;2023-08-01T11:52:24;23.00;99.90
2389;DHT22;1205;47.984;7.668;2023-08-01T11:54:50;23.40;99.90
2389;DHT22;1205;47.984;7.668;2023-08-01T11:57:16;23.70;99.90
2389;DHT22;1205;47.984;7.668;2023-08-01T11:59:49;24.10;99.90
2389;DHT22;1205;47.984;7.668;2023-08-01T12:02:22;24.10;99.90
2389;DHT22;1205;47.984;7.668;2023-08-01T12:04:48;23.60;99.90
2389;DHT22;1205;47.984;7.668;2023-08-01T12:07:15;24.10;99.90
2389;DHT22;1205;47.984;7.668;2023-08-01T12:09:41;23.80;99.90
2389;DHT22;1205;47.984;7.668;2023-08-01T12:12:09;23.80;99.90
2389;DHT22;1205;47.984;7.668;2023-08-01T12:14:39;24.00;99.90
2389;DHT22;1205;47.984;7.668;2023-08-01T12:17:05;24.20;99.90
2389;DHT22;1205;47.984;7.668;2023-08-01T12:19:31;24.30;99.90
2389;DHT22;1205;47.984;7.668;2023-08-01T12:21:59;24.40;99.90
2389;DHT22;1205;47.984;7.668;2023-08-01T12:24:24;23.80;99.90
2389;DHT22;1205;47.984;7.668;2023-08-01T12:26:50;23.70;99.90
2389;DHT22;1205;47.984;7.668;2023-08-01T12:29:15;23.50;99.90
2389;DHT22;1205;47.984;7.668;2023-08-01T12:31:41;23.80;99.90
2389;DHT22;1205;47.984;7.668;2023-08-01T12:34:07;23.40;99.90
2389;DHT22;1205;47.984;7.668;2023-08-01T12:36:33;23.40;99.90
2389;DHT22;1205;47.984;7.668;2023-08-01T12:38:58;23.30;99.90
2389;DHT22;1205;47.984;7.668;2023-08-01T12:41:24;23.50;99.90
2389;DHT22;1205;47.984;7.668;2023-08-01T12:43:50;23.60;99.90
2389;DHT22;1205;47.984;7.668;2023-08-01T12:46:15;24.00;99.90
2389;DHT22;1205;47.984;7.668;2023-08-01T12:48:41;24.30;99.90
2389;DHT22;1205;47.984;7.668;2023-08-01T12:51:07;24.70;99.90
2389;DHT22;1205;47.984;7.668;2023-08-01T12:53:33;24.90;99.90
2389;DHT22;1205;47.984;7.668;2023-08-01T12:55:59;25.10;99.90
2389;DHT22;1205;47.984;7.668;2023-08-01T12:58:24;25.00;99.70
2389;DHT22;1205;47.984;7.668;2023-08-01T13:00:50;25.00;99.90
2389;DHT22;1205;47.984;7.668;2023-08-01T13:03:15;25.00;99.90
2389;DHT22;1205;47.984;7.668;2023-08-01T13:05:42;24.50;99.50
2389;DHT22;1205;47.984;7.668;2023-08-01T13:08:08;24.00;99.90
2389;DHT22;1205;47.984;7.668;2023-08-01T13:10:36;24.00;99.90
2389;DHT22;1205;47.984;7.668;2023-08-01T13:13:01;23.80;99.90
2389;DHT22;1205;47.984;7.668;2023-08-01T13:15:28;23.60;99.90
2389;DHT22;1205;47.984;7.668;2023-08-01T13:17:54;23.70;99.90
2389;DHT22;1205;47.984;7.668;2023-08-01T13:20:20;23.70;99.90
2389;DHT22;1205;47.984;7.668;2023-08-01T13:22:47;23.70;99.90
2389;DHT22;1205;47.984;7.668;2023-08-01T13:25:14;23.70;99.90
2389;DHT22;1205;47.984;7.668;2023-08-01T13:27:39;23.90;99.90
2389;DHT22;1205;47.984;7.668;2023-08-01T13:30:05;24.20;99.90
2389;DHT22;1205;47.984;7.668;2023-08-01T13:32:31;24.30;99.90
2389;DHT22;1205;47.984;7.668;2023-08-01T13:34:57;24.30;99.20
2389;DHT22;1205;47.984;7.668;2023-08-01T13:37:22;24.60;99.60
2389;DHT22;1205;47.984;7.668;2023-08-01T13:39:48;24.70;99.10
2389;DHT22;1205;47.984;7.668;2023-08-01T13:42:14;24.70;99.60
2389;DHT22;1205;47.984;7.668;2023-08-01T13:44:41;24.40;99.90
2389;DHT22;1205;47.984;7.668;2023-08-01T13:47:07;24.20;99.90
2389;DHT22;1205;47.984;7.668;2023-08-01T13:49:33;24.10;99.90
2389;DHT22;1205;47.984;7.668;2023-08-01T13:51:59;23.90;99.90
2389;DHT22;1205;47.984;7.668;2023-08-01T13:54:25;23.90;99.90
2389;DHT22;1205;47.984;7.668;2023-08-01T13:56:51;24.10;99.90
2389;DHT22;1205;47.984;7.668;2023-08-01T13:59:18;24.40;99.90
2389;DHT22;1205;47.984;7.668;2023-08-01T14:01:44;24.60;99.90
2389;DHT22;1205;47.984;7.668;2023-08-01T14:04:10;24.50;99.90
2389;DHT22;1205;47.984;7.668;2023-08-01T14:06:36;24.60;99.80
2389;DHT22;1205;47.984;7.668;2023-08-01T14:09:01;24.50;99.90
2389;DHT22;1205;47.984;7.668;2023-08-01T14:11:27;24.60;99.80
2389;DHT22;1205;47.984;7.668;2023-08-01T14:13:52;24.60;99.90
2389;DHT22;1205;47.984;7.668;2023-08-01T14:16:18;24.80;99.90
2389;DHT22;1205;47.984;7.668;2023-08-01T14:18:44;24.90;99.90
2389;DHT22;1205;47.984;7.668;2023-08-01T14:21:10;25.10;99.90
2389;DHT22;1205;47.984;7.668;2023-08-01T14:23:35;24.80;99.40
2389;DHT22;1205;47.984;7.668;2023-08-01T14:26:03;24.80;99.50
2389;DHT22;1205;47.984;7.668;2023-08-01T14:28:29;24.80;99.90
2389;DHT22;1205;47.984;7.668;2023-08-01T14:30:55;24.80;99.90
2389;DHT22;1205;47.984;7.668;2023-08-01T14:33:20;24.70;99.90
2389;DHT22;1205;47.984;7.668;2023-08-01T14:35:46;24.20;99.70
2389;DHT22;1205;47.984;7.668;2023-08-01T14:38:12;24.20;99.40
2389;DHT22;1205;47.984;7.668;2023-08-01T14:40:37;24.20;99.90
2389;DHT22;1205;47.984;7.668;2023-08-01T14:43:04;24.20;99.90
2389;DHT22;1205;47.984;7.668;2023-08-01T14:45:30;24.20;99.90
2389;DHT22;1205;47.984;7.668;2023-08-01T14:47:56;23.70;99.50
2389;DHT22;1205;47.984;7.668;2023-08-01T14:50:22;23.80;99.90
2389;DHT22;1205;47.984;7.668;2023-08-01T14:52:47;24.10;99.90
2389;DHT22;1205;47.984;7.668;2023-08-01T14:55:13;24.40;99.90
2389;DHT22;1205;47.984;7.668;2023-08-01T14:57:38;24.50;99.90
2389;DHT22;1205;47.984;7.668;2023-08-01T15:00:04;24.80;99.30
2389;DHT22;1205;47.984;7.668;2023-08-01T15:02:30;25.00;99.20
2389;DHT22;1205;47.984;7.668;2023-08-01T15:04:56;25.10;98.70
2389;DHT22;1205;47.984;7.668;2023-08-01T15:07:25;25.20;95.10
2389;DHT22;1205;47.984;7.668;2023-08-01T15:09:51;25.00;93.80
2389;DHT22;1205;47.984;7.668;2023-08-01T15:12:18;24.80;93.70
2389;DHT22;1205;47.984;7.668;2023-08-01T15:14:49;24.70;94.50
2389;DHT22;1205;47.984;7.668;2023-08-01T15:17:15;24.60;93.80
2389;DHT22;1205;47.984;7.668;2023-08-01T15:19:41;24.60;94.30
2389;DHT22;1205;47.984;7.668;2023-08-01T15:22:06;24.60;94.60
2389;DHT22;1205;47.984;7.668;2023-08-01T15:24:32;24.50;94.00
2389;DHT22;1205;47.984;7.668;2023-08-01T15:26:57;24.40;93.80
2389;DHT22;1205;47.984;7.668;2023-08-01T15:29:23;24.40;94.30
2389;DHT22;1205;47.984;7.668;2023-08-01T15:31:48;24.40;93.80
2389;DHT22;1205;47.984;7.668;2023-08-01T15:34:14;24.20;93.80
2389;DHT22;1205;47.984;7.668;2023-08-01T15:36:40;24.10;93.90
2389;DHT22;1205;47.984;7.668;2023-08-01T15:39:05;24.10;94.30
2389;DHT22;1205;47.984;7.668;2023-08-01T15:41:31;24.10;94.60
2389;DHT22;1205;47.984;7.668;2023-08-01T15:43:56;24.10;94.20
2389;DHT22;1205;47.984;7.668;2023-08-01T15:46:22;24.20;94.50
2389;DHT22;1205;47.984;7.668;2023-08-01T15:48:47;24.20;93.80
2389;DHT22;1205;47.984;7.668;2023-08-01T15:51:14;24.20;94.00
2389;DHT22;1205;47.984;7.668;2023-08-01T15:53:39;24.20;94.10
2389;DHT22;1205;47.984;7.668;2023-08-01T15:56:07;24.30;94.40
2389;DHT22;1205;47.984;7.668;2023-08-01T15:58:33;24.40;93.80